^^
Station Historical Data
 
Daily Summary for June 22, 2017 Units:  English    Metric   Both
« Previous Day
Next Day »
Daily Weekly Monthly Yearly Custom
  Current: High: Low: Average:
Temperature: 78.2 °F 78.2 °F 70.8 °F 73.7 °F
Dew Point: 71.5 °F 74.5 °F 69.6 °F 72 °F
Humidity: 80% 98% 79% 95%
Wind Speed: 0.0mph 1.0mph 0.0mph 0mph
Wind Gust: 0.0mph 5.8mph - -
WindCalm - - ENE
Pressure: 30.15 in 30.15 in 30.09 in -
Precipitation: 0.00 in      
Historical Graphs
 
 
Tabular Data for June 22, 2017
Time Temperature Dew Point Pressure Wind Wind Speed Wind Gust Humidity Rainfall Rate (Hourly) solar Conditions
00:01 71.3 °F 70.1 °F 30.11 in Calm     96% 0.00 in WeatherDisplay:10.37 W/m2 RA
00:06 71.2 °F 70.0 °F 30.11 in Calm     96% 0.00 in WeatherDisplay:10.37 W/m2 RA
00:11 71.1 °F 69.9 °F 30.11 in Calm     96% 0.00 in WeatherDisplay:10.37 W/m2 CLR
00:16 71.1 °F 69.9 °F 30.11 in Calm     96% 0.00 in WeatherDisplay:10.37 W/m2 CLR
00:21 71.0 °F 69.8 °F 30.11 in Calm     96% 0.00 in WeatherDisplay:10.37 W/m2 CLR
00:26 71.0 °F 69.8 °F 30.11 in Calm     96% 0.00 in WeatherDisplay:10.37 W/m2 CLR
00:31 70.9 °F 69.7 °F 30.11 in Calm     96% 0.00 in WeatherDisplay:10.37 W/m2 CLR
00:36 70.8 °F 69.6 °F 30.11 in Calm     96% 0.00 in WeatherDisplay:10.37 W/m2 CLR
00:41 71.0 °F 70.1 °F 30.11 in Calm     97% 0.00 in WeatherDisplay:10.37 W/m2 CLR
00:46 71.0 °F 70.1 °F 30.11 in Calm     97% 0.00 in WeatherDisplay:10.37 W/m2 CLR
00:51 71.0 °F 70.1 °F 30.11 in Calm     97% 0.00 in WeatherDisplay:10.37 W/m2 CLR
00:56 71.0 °F 70.1 °F 30.11 in Calm     97% 0.00 in WeatherDisplay:10.37 W/m2 CLR
00:57 71.0 °F 70.1 °F 30.11 in Calm     97% 0.00 in WeatherDisplay:10.37 W/m2 CLR
01:02 70.9 °F 69.7 °F 30.11 in Calm     96% 0.00 in WeatherDisplay:10.37 W/m2 CLR
01:07 70.9 °F 69.7 °F 30.11 in Calm     96% 0.00 in WeatherDisplay:10.37 W/m2 CLR
01:12 70.8 °F 69.9 °F 30.11 in Calm     97% 0.00 in WeatherDisplay:10.37 W/m2 CLR
01:17 70.9 °F 70.0 °F 30.11 in Calm     97% 0.00 in WeatherDisplay:10.37 W/m2 CLR
01:22 71.1 °F 70.2 °F 30.11 in Calm     97% 0.00 in WeatherDisplay:10.37 W/m2 CLR
01:27 71.1 °F 70.2 °F 30.11 in Calm     97% 0.00 in WeatherDisplay:10.37 W/m2 CLR
01:32 71.1 °F 70.2 °F 30.11 in Calm     97% 0.00 in WeatherDisplay:10.37 W/m2 CLR
01:37 71.0 °F 70.1 °F 30.11 in Calm     97% 0.00 in WeatherDisplay:10.37 W/m2 CLR
01:42 71.1 °F 70.2 °F 30.10 in Calm     97% 0.00 in WeatherDisplay:10.37 W/m2 CLR
01:47 71.2 °F 70.3 °F 30.10 in Calm     97% 0.00 in WeatherDisplay:10.37 W/m2 CLR
01:52 71.3 °F 70.4 °F 30.10 in Calm     97% 0.00 in WeatherDisplay:10.37 W/m2 CLR
01:57 71.4 °F 70.5 °F 30.10 in Calm     97% 0.00 in WeatherDisplay:10.37 W/m2 CLR
02:02 71.5 °F 70.6 °F 30.10 in Calm     97% 0.00 in WeatherDisplay:10.37 W/m2 CLR
02:07 71.6 °F 70.7 °F 30.10 in Calm     97% 0.00 in WeatherDisplay:10.37 W/m2 CLR
02:12 71.6 °F 70.7 °F 30.10 in Calm     97% 0.00 in WeatherDisplay:10.37 W/m2 CLR
02:17 71.6 °F 70.7 °F 30.10 in Calm     97% 0.00 in WeatherDisplay:10.37 W/m2 CLR
02:22 71.7 °F 71.1 °F 30.10 in Calm     98% 0.00 in WeatherDisplay:10.37 W/m2 CLR
02:27 71.9 °F 71.3 °F 30.10 in Calm     98% 0.00 in WeatherDisplay:10.37 W/m2 CLR
02:32 71.9 °F 71.0 °F 30.10 in Calm     97% 0.00 in WeatherDisplay:10.37 W/m2 CLR
02:37 72.0 °F 71.1 °F 30.10 in Calm     97% 0.00 in WeatherDisplay:10.37 W/m2 CLR
02:42 72.0 °F 71.1 °F 30.10 in Calm     97% 0.00 in WeatherDisplay:10.37 W/m2 CLR
02:47 72.1 °F 71.2 °F 30.10 in Calm     97% 0.00 in WeatherDisplay:10.37 W/m2 CLR
02:52 72.1 °F 71.2 °F 30.09 in Calm     97% 0.00 in WeatherDisplay:10.37 W/m2 CLR
02:57 72.2 °F 71.3 °F 30.09 in Calm     97% 0.00 in WeatherDisplay:10.37 W/m2 CLR
03:02 72.3 °F 71.4 °F 30.09 in Calm     97% 0.00 in WeatherDisplay:10.37 W/m2 CLR
03:07 72.4 °F 71.8 °F 30.09 in Calm     98% 0.00 in WeatherDisplay:10.37 W/m2 CLR
03:12 72.5 °F 71.6 °F 30.09 in Calm     97% 0.00 in WeatherDisplay:10.37 W/m2 CLR
03:17 72.6 °F 71.7 °F 30.09 in Calm     97% 0.00 in WeatherDisplay:10.37 W/m2 CLR
03:22 72.7 °F 71.8 °F 30.09 in Calm     97% 0.00 in WeatherDisplay:10.37 W/m2 CLR
03:27 72.7 °F 71.8 °F 30.10 in Calm     97% 0.00 in WeatherDisplay:10.37 W/m2 CLR
03:32 72.8 °F 71.9 °F 30.10 in Calm     97% 0.00 in WeatherDisplay:10.37 W/m2 CLR
03:37 72.8 °F 71.9 °F 30.10 in Calm     97% 0.00 in WeatherDisplay:10.37 W/m2 CLR
03:42 72.8 °F 71.9 °F 30.09 in Calm     97% 0.00 in WeatherDisplay:10.37 W/m2 CLR
03:47 72.9 °F 72.0 °F 30.09 in Calm     97% 0.00 in WeatherDisplay:10.37 W/m2 CLR
03:52 72.9 °F 72.0 °F 30.09 in Calm     97% 0.00 in WeatherDisplay:10.37 W/m2 CLR
03:57 73.0 °F 72.1 °F 30.09 in Calm     97% 0.00 in WeatherDisplay:10.37 W/m2 CLR
04:02 73.0 °F 72.1 °F 30.09 in Calm     97% 0.00 in WeatherDisplay:10.37 W/m2 CLR
04:07 73.1 °F 72.2 °F 30.09 in Calm     97% 0.00 in WeatherDisplay:10.37 W/m2 CLR
04:12 73.0 °F 72.1 °F 30.09 in Calm     97% 0.00 in WeatherDisplay:10.37 W/m2 CLR
04:17 73.1 °F 72.2 °F 30.09 in Calm     97% 0.00 in WeatherDisplay:10.37 W/m2 CLR
04:22 73.1 °F 72.2 °F 30.09 in Calm     97% 0.00 in WeatherDisplay:10.37 W/m2 CLR
04:27 73.1 °F 72.2 °F 30.09 in Calm     97% 0.00 in WeatherDisplay:10.37 W/m2 CLR
04:32 73.1 °F 72.2 °F 30.09 in Calm     97% 0.00 in WeatherDisplay:10.37 W/m2 CLR
04:37 73.1 °F 72.2 °F 30.09 in Calm     97% 0.00 in WeatherDisplay:10.37 W/m2 CLR
04:42 73.0 °F 72.1 °F 30.09 in Calm     97% 0.00 in WeatherDisplay:10.37 W/m2 CLR
04:47 73.0 °F 72.1 °F 30.09 in Calm     97% 0.00 in WeatherDisplay:10.37 W/m2 CLR
04:48 73.0 °F 72.1 °F 30.09 in Calm     97% 0.00 in WeatherDisplay:10.37 W/m2 CLR
04:53 73.1 °F 72.2 °F 30.09 in Calm     97% 0.00 in WeatherDisplay:10.37 W/m2 CLR
04:58 73.1 °F 72.2 °F 30.09 in Calm     97% 0.00 in WeatherDisplay:10.37 W/m2 CLR
05:03 73.1 °F 72.2 °F 30.09 in Calm     97% 0.00 in WeatherDisplay:10.37 W/m2 CLR
05:08 73.1 °F 72.5 °F 30.09 in Calm     98% 0.00 in WeatherDisplay:10.37 W/m2 CLR
05:13 73.1 °F 72.5 °F 30.09 in Calm     98% 0.00 in WeatherDisplay:10.37 W/m2 CLR
05:18 73.1 °F 72.5 °F 30.09 in Calm     98% 0.00 in WeatherDisplay:10.37 W/m2 CLR
05:23 73.0 °F 72.4 °F 30.09 in Calm     98% 0.00 in WeatherDisplay:10.37 W/m2 CLR
05:33 73.0 °F 72.4 °F 30.09 in Calm     98% 0.00 in WeatherDisplay:10.37 W/m2 CLR
05:38 73.0 °F 72.4 °F 30.09 in Calm     98% 0.00 in WeatherDisplay:10.37 W/m2 CLR
05:43 73.0 °F 72.4 °F 30.09 in Calm     98% 0.00 in WeatherDisplay:10.37 W/m2 CLR
05:48 73.0 °F 72.1 °F 30.09 in Calm     97% 0.00 in WeatherDisplay:10.37 W/m2 CLR
05:53 73.0 °F 72.1 °F 30.09 in Calm     97% 0.00 in WeatherDisplay:10.37 W/m2 CLR
05:58 72.9 °F 72.0 °F 30.09 in Calm     97% 0.00 in WeatherDisplay:10.37 W/m2 CLR
06:03 72.8 °F 71.9 °F 30.09 in Calm     97% 0.00 in WeatherDisplay:10.37 W/m2 CLR
06:08 72.7 °F 71.8 °F 30.09 in Calm     97% 0.00 in WeatherDisplay:10.37 W/m2 CLR
06:13 72.7 °F 71.8 °F 30.09 in Calm     97% 0.00 in WeatherDisplay:10.37 W/m2 CLR
06:18 72.6 °F 72.0 °F 30.09 in Calm     98% 0.00 in WeatherDisplay:10.37 W/m2 CLR
06:23 72.6 °F 72.0 °F 30.09 in Calm     98% 0.00 in WeatherDisplay:10.37 W/m2 CLR
06:28 72.6 °F 72.0 °F 30.10 in Calm     98% 0.00 in WeatherDisplay:10.37 W/m2 CLR
06:33 72.7 °F 72.1 °F 30.09 in Calm     98% 0.00 in WeatherDisplay:10.37 W/m2 CLR
06:38 72.7 °F 72.1 °F 30.10 in Calm     98% 0.00 in WeatherDisplay:10.37 W/m2 CLR
06:43 72.7 °F 72.1 °F 30.10 in Calm     98% 0.00 in WeatherDisplay:10.37 W/m2 CLR
06:48 72.7 °F 72.1 °F 30.10 in Calm     98% 0.00 in WeatherDisplay:10.37 W/m2 CLR
06:53 72.7 °F 72.1 °F 30.10 in Calm     98% 0.00 in WeatherDisplay:10.37 W/m2 CLR
06:58 72.8 °F 72.2 °F 30.10 in Calm     98% 0.00 in WeatherDisplay:10.37 W/m2 CLR
07:03 72.8 °F 72.2 °F 30.10 in Calm     98% 0.00 in WeatherDisplay:10.37 W/m2 CLR
07:08 72.8 °F 72.2 °F 30.10 in Calm     98% 0.00 in WeatherDisplay:10.37 W/m2 CLR
07:13 72.8 °F 72.2 °F 30.10 in Calm     98% 0.00 in WeatherDisplay:10.37 W/m2 CLR
07:18 72.9 °F 72.3 °F 30.10 in Calm     98% 0.00 in WeatherDisplay:10.37 W/m2 CLR
07:23 73.0 °F 72.4 °F 30.10 in Calm     98% 0.00 in WeatherDisplay:10.37 W/m2 CLR
07:28 73.0 °F 72.4 °F 30.10 in Calm     98% 0.00 in WeatherDisplay:10.37 W/m2 CLR
07:33 73.1 °F 72.5 °F 30.10 in Calm     98% 0.00 in WeatherDisplay:10.37 W/m2 CLR
07:38 73.1 °F 72.5 °F 30.10 in Calm     98% 0.00 in WeatherDisplay:10.37 W/m2 CLR
07:43 73.2 °F 72.6 °F 30.11 in Calm     98% 0.00 in WeatherDisplay:10.37 W/m2 CLR
07:48 73.2 °F 72.6 °F 30.11 in Calm     98% 0.00 in WeatherDisplay:10.37 W/m2 CLR
07:53 73.2 °F 72.6 °F 30.11 in Calm     98% 0.00 in WeatherDisplay:10.37 W/m2 CLR
07:58 73.3 °F 72.7 °F 30.11 in Calm     98% 0.00 in WeatherDisplay:10.37 W/m2 CLR
08:03 73.3 °F 72.7 °F 30.11 in Calm     98% 0.00 in WeatherDisplay:10.37 W/m2 CLR
08:08 73.4 °F 72.8 °F 30.12 in Calm     98% 0.00 in WeatherDisplay:10.37 W/m2 CLR
08:13 73.4 °F 72.8 °F 30.12 in Calm     98% 0.00 in WeatherDisplay:10.37 W/m2 CLR
08:18 73.5 °F 72.9 °F 30.12 in Calm     98% 0.00 in WeatherDisplay:10.37 W/m2 CLR
08:23 73.5 °F 72.9 °F 30.12 in Calm     98% 0.00 in WeatherDisplay:10.37 W/m2 CLR
08:28 73.6 °F 73.0 °F 30.12 in Calm     98% 0.00 in WeatherDisplay:10.37 W/m2 CLR
08:33 73.7 °F 73.1 °F 30.12 in Calm     98% 0.00 in WeatherDisplay:10.37 W/m2 CLR
08:38 73.8 °F 73.2 °F 30.13 in Calm     98% 0.00 in WeatherDisplay:10.37 W/m2 CLR
08:43 73.9 °F 73.3 °F 30.12 in Calm     98% 0.00 in WeatherDisplay:10.37 W/m2 CLR
08:48 73.9 °F 73.0 °F 30.13 in Calm     97% 0.00 in WeatherDisplay:10.37 W/m2 CLR
08:53 74.0 °F 73.1 °F 30.13 in Calm     97% 0.00 in WeatherDisplay:10.37 W/m2 CLR
08:58 74.1 °F 73.2 °F 30.13 in Calm     97% 0.00 in WeatherDisplay:10.37 W/m2 CLR
09:03 74.3 °F 73.4 °F 30.13 in Calm     97% 0.00 in WeatherDisplay:10.37 W/m2 CLR
09:08 74.5 °F 73.6 °F 30.13 in Calm     97% 0.00 in WeatherDisplay:10.37 W/m2 CLR
09:13 74.5 °F 73.6 °F 30.13 in Calm     97% 0.00 in WeatherDisplay:10.37 W/m2 CLR
09:18 74.8 °F 73.9 °F 30.13 in Calm     97% 0.00 in WeatherDisplay:10.37 W/m2 CLR
09:23 74.9 °F 73.7 °F 30.13 in Calm     96% 0.00 in WeatherDisplay:10.37 W/m2 CLR
09:28 75.1 °F 73.9 °F 30.13 in Calm     96% 0.00 in WeatherDisplay:10.37 W/m2 CLR
09:33 75.4 °F 73.9 °F 30.13 in Calm     95% 0.00 in WeatherDisplay:10.37 W/m2 CLR
09:38 75.4 °F 73.6 °F 30.13 in Calm     94% 0.00 in WeatherDisplay:10.37 W/m2 CLR
09:43 75.6 °F 73.8 °F 30.13 in Calm     94% 0.00 in WeatherDisplay:10.37 W/m2 CLR
09:48 75.7 °F 73.8 °F 30.13 in Calm     94% 0.00 in WeatherDisplay:10.37 W/m2 CLR
09:53 76.0 °F 74.1 °F 30.13 in Calm     94% 0.00 in WeatherDisplay:10.37 W/m2 CLR
09:58 76.1 °F 74.2 °F 30.14 in Calm     94% 0.00 in WeatherDisplay:10.37 W/m2 CLR
10:03 76.3 °F 74.4 °F 30.14 in Calm     94% 0.00 in WeatherDisplay:10.37 W/m2 CLR
10:08 76.5 °F 74.3 °F 30.14 in Calm     93% 0.00 in WeatherDisplay:10.37 W/m2 CLR
10:13 76.7 °F 74.5 °F 30.14 in Calm     93% 0.00 in WeatherDisplay:10.37 W/m2 CLR
10:18 76.8 °F 74.3 °F 30.14 in Calm     92% 0.00 in WeatherDisplay:10.37 W/m2 CLR
10:23 77.0 °F 74.5 °F 30.14 in Calm     92% 0.00 in WeatherDisplay:10.37 W/m2 CLR
10:28 77.0 °F 74.2 °F 30.14 in Calm     91% 0.00 in WeatherDisplay:10.37 W/m2 CLR
10:33 77.1 °F 74.3 °F 30.14 in Calm     91% 0.00 in WeatherDisplay:10.37 W/m2 CLR
10:38 77.3 °F 73.8 °F 30.14 in Calm     89% 0.00 in WeatherDisplay:10.37 W/m2 CLR
10:43 77.4 °F 73.6 °F 30.15 in Calm     88% 0.00 in WeatherDisplay:10.37 W/m2 CLR
10:48 77.6 °F 73.8 °F 30.15 in Calm     88% 0.00 in WeatherDisplay:10.37 W/m2 CLR
10:53 77.5 °F 73.3 °F 30.15 in SE 0.6 mph 2.3 mph 87% 0.00 in WeatherDisplay:10.37 W/m2 CLR
10:58 77.5 °F 73.0 °F 30.15 in SSE 0.1 mph 2.3 mph 86% 0.00 in WeatherDisplay:10.37 W/m2 CLR
11:03 77.5 °F 73.0 °F 30.15 in Calm     86% 0.00 in WeatherDisplay:10.37 W/m2 CLR
11:08 77.7 °F 73.5 °F 30.15 in Calm     87% 0.00 in WeatherDisplay:10.37 W/m2 CLR
11:13 78.0 °F 73.1 °F 30.15 in Calm     85% 0.00 in WeatherDisplay:10.37 W/m2 CLR
11:14 78.0 °F 73.1 °F 30.15 in East 0.2 mph 2.3 mph 85% 0.00 in WeatherDisplay:10.37 W/m2 CLR
11:19 78.0 °F 72.4 °F 30.15 in Calm     83% 0.00 in WeatherDisplay:10.37 W/m2 CLR
11:24 78.0 °F 72.4 °F 30.15 in NE 0.4 mph 3.5 mph 83% 0.00 in WeatherDisplay:10.37 W/m2 CLR
11:29 77.8 °F 72.2 °F 30.14 in NE 0.9 mph 3.5 mph 83% 0.00 in WeatherDisplay:10.37 W/m2 CLR
11:34 77.8 °F 72.2 °F 30.14 in Calm     83% 0.00 in WeatherDisplay:10.37 W/m2 CLR
11:39 77.5 °F 71.9 °F 30.14 in NE 0.1 mph 1.1 mph 83% 0.00 in WeatherDisplay:10.37 W/m2 CLR
11:44 77.5 °F 72.6 °F 30.14 in Calm     85% 0.00 in WeatherDisplay:10.37 W/m2 CLR
11:49 77.3 °F 71.7 °F 30.15 in NNE 0.2 mph 3.0 mph 83% 0.00 in WeatherDisplay:10.37 W/m2 CLR
11:54 77.1 °F 71.9 °F 30.14 in NNE 1.0 mph 5.8 mph 84% 0.00 in WeatherDisplay:10.37 W/m2 CLR
11:59 77.1 °F 72.6 °F 30.13 in NNE 0.2 mph 3.5 mph 86% 0.00 in WeatherDisplay:10.37 W/m2 CLR
12:04 77.0 °F 71.1 °F 30.14 in Calm     82% 0.00 in WeatherDisplay:10.37 W/m2 CLR
12:09 77.3 °F 72.1 °F 30.14 in Calm     84% 0.00 in WeatherDisplay:10.37 W/m2 CLR
12:14 77.6 °F 71.7 °F 30.14 in Calm     82% 0.00 in WeatherDisplay:10.37 W/m2 CLR
12:19 77.9 °F 70.9 °F 30.14 in NNE 0.3 mph 3.5 mph 79% 0.00 in WeatherDisplay:10.37 W/m2 CLR
12:24 77.9 °F 70.9 °F 30.15 in Calm     79% 0.00 in WeatherDisplay:10.37 W/m2 CLR
12:29 78.1 °F 71.1 °F 30.15 in Calm     79% 0.00 in WeatherDisplay:10.37 W/m2 CLR
12:34 78.2 °F 71.5 °F 30.15 in Calm     80% 0.00 in WeatherDisplay:10.37 W/m2 CLR
Gayle H. Riggsbee Observatory (GHRO)
Compliments of Weather Underground - 1.25 mb